Bunker Hill, West Virginia
Current Conditions -  °F | °C
As of 11:53 AM on Sunday 23 Nov 2014 (Local Time) from KMRB Reporting Station
Clear Clear  
Wind Chill: 12°   Ceiling: Unl
Heat Index: 12°   Visibility: 10mi
Dew Point: -6°   Wind: 6mph
Humidity: 29%   Direction: 180°S
Pressure: 30.13"   Gusts: NA
Location:  39.33°N, 78.05°W
Report Text: KMRB 231653Z 18005KT 10SM CLR 12/M06 A3013 RMK AO2 SLP206 T01221056
Loading
Personal Weather Stations






























Interactive Weather Map New forecast layout! Learn more

10-Day Weather Forecast

Advertisements
Track Severe Weather on mobile